Nearby METAR Reports

 

KBAX - Bad Axe, Michigan, USA
Distance from station: ESE 22mi, 35km
Updated: Thu, 20-Sep-2018 7:16pm EDT
Overcast
Overcast
 Wind from SE
Wind: SE 6 mph , 9 km/h
Temperature: 68°F , 20°C
Dew Point: 64°F , 18°C
Humidity: 88%
Barometer: 29.98 inHg , 1015.2 hPa
Clouds: Overcast
Visibility: 10 miles , 16 km
Cloud details: Overcast 1000 ft
2018/09/20 23:16 KBAX 202316Z AUTO 13005KT 10SM OVC010 20/18 A2998 RMK AO2 T02020180
KFNT - Flint, Michigan, USA
Distance from station: SSW 68mi, 109km
Updated: Thu, 20-Sep-2018 6:53pm EDT
Clear
Clear
 Wind from SE
Wind: SE 8 mph , 13 km/h
Temperature: 72°F , 22°C
Dew Point: 66°F , 19°C
Humidity: 83%
Barometer: 29.96 inHg , 1014.6 hPa
Clouds: Clear
Visibility: 10 miles , 16 km
2018/09/20 22:53 KFNT 202253Z 13007KT 10SM CLR 22/19 A2996 RMK AO2 SLP142 T02220194
KMBS - Saginaw, Michigan, USA
Distance from station: SW 44mi, 70km
Updated: Thu, 20-Sep-2018 6:53pm EDT
Partly cloudy
Partly cloudy
 Wind from SE
Wind: SE 7 mph , 11 km/h
Temperature: 75°F , 24°C
Dew Point: 70°F , 21°C
Humidity: 83%
Barometer: 29.94 inHg , 1013.9 hPa
Clouds: Partly cloudy
Visibility: 10 miles , 16 km
Cloud details: Partly cloudy 2100 ft
2018/09/20 22:53 KMBS 202253Z 13006KT 10SM SCT021 24/21 A2994 RMK AO2 SLP137 T02390206
 
KDTW - Detroit/Wayne, Michigan, USA
Distance from station: SSE 117mi, 188km
Updated: Thu, 20-Sep-2018 6:53pm EDT
Overcast
Overcast
 Wind from SE
Wind: SE 5 mph , 7 km/h
Temperature: 75°F , 24°C
Dew Point: 66°F , 19°C
Humidity: 74%
Barometer: 29.98 inHg , 1015.2 hPa
Clouds: Overcast
Visibility: 9 miles , 14 km
Cloud details: Few Clouds 6500 ft
Partly cloudy 10000 ft
Overcast 22000 ft
2018/09/20 22:53 KDTW 202253Z 13004KT 9SM FEW065 SCT100 OVC220 24/19 A2998 RMK AO2 SLP147 T02390189
KP58 - Port Hope, Michigan, USA
Distance from station: ENE 30mi, 48km
Updated: Thu, 20-Sep-2018 6:51pm EDT

 Wind from SE
Wind: SE 16 mph , 26 km/h
Temperature: 68°F , 20°C
Dew Point: 64°F , 18°C
Humidity: 88%
Barometer: 29.97 inHg , 1014.9 hPa
2018/09/20 22:51 KP58 202251Z AUTO 13014KT 20/18 A2997 RMK AO1 SLP145 T02000178
KCFS - Caro/Tuscola, Michigan, USA
Distance from station: S 31mi, 50km
Updated: Thu, 20-Sep-2018 7:15pm EDT
Partly cloudy
Partly cloudy
 Wind from SE
Wind: SE 8 mph , 13 km/h
Temperature: 72°F , 22°C
Dew Point: 66°F , 19°C
Humidity: 83%
Barometer: 29.95 inHg , 1014.2 hPa
Clouds: Partly cloudy
Visibility: 10 miles , 16 km
Cloud details: Partly cloudy 1500 ft
Partly cloudy 5500 ft
2018/09/20 23:15 KCFS 202315Z AUTO 13007KT 10SM SCT015 SCT055 22/19 A2995 RMK AO2 T02160190
 
KPHN - Port Huron, Michigan, USA
Distance from station: SSE 81mi, 131km
Updated: Thu, 20-Sep-2018 7:15pm EDT
Partly cloudy
Partly cloudy
 Wind from calm
Wind: Calm
Temperature: 72°F , 22°C
Dew Point: 66°F , 19°C
Humidity: 83%
Barometer: 29.99 inHg , 1015.6 hPa
Clouds: Partly cloudy
Visibility: 10 miles , 16 km
Cloud details: Partly cloudy 9500 ft
2018/09/20 23:15 KPHN 202315Z AUTO 00000KT 10SM SCT095 22/19 A2999 RMK AO2
KPTK - Pontiac, Michigan, USA
Distance from station: S 86mi, 138km
Updated: Thu, 20-Sep-2018 6:53pm EDT
Mostly cloudy
Mostly cloudy
 Wind from SE
Wind: SE 8 mph , 13 km/h
Temperature: 72°F , 22°C
Dew Point: 70°F , 21°C
Humidity: 94%
Barometer: 29.97 inHg , 1014.9 hPa
Clouds: Mostly cloudy
Visibility: 9 miles , 14 km
Cloud details: Few Clouds 900 ft
Mostly cloudy 2300 ft
Mostly cloudy 24000 ft
2018/09/20 22:53 KPTK 202253Z 13007KT 9SM FEW009 BKN023 BKN240 22/21 A2997 RMK AO2 SLP145 T02170206
KMTC - Selfridge Angb, Michigan, USA
Distance from station: SSE 94mi, 151km
Updated: Thu, 20-Sep-2018 6:56pm EDT
Mostly cloudy
Mostly cloudy
 Wind from ESE
Wind: ESE 7 mph , 11 km/h
Temperature: 72°F , 22°C
Dew Point: 72°F , 22°C
Humidity: 100%
Barometer: 29.98 inHg , 1015.2 hPa
Clouds: Mostly cloudy
Visibility: 10 miles , 16 km
Cloud details: Few Clouds 12000 ft
Mostly cloudy 23000 ft
2018/09/20 22:56 KMTC 202256Z 12006KT 10SM FEW120 BKN230 22/22 A2998 RMK AO2A SLP155 T02190219